Time;durP1;ratioP1;P1;durP2;ratioP2;P2;SDS_P1;SDS_P2;PMS_P1;PMS_P2;Temp;Humidity;BMP_temperature;BMP_pressure;BME280_temperature;BME280_humidity;BME280_pressure;Samples;Min_cycle;Max_cycle;Signal;HPM_P1;HPM_P2
2023/08/11 00:00:47;;;;;;;6.57;3.80;;;;;;;-148.88;100.00;-17125.47;5053593;28;20032;-74
2023/08/11 00:03:13;;;;;;;6.93;4.00;;;;;;;-148.88;100.00;-17125.47;5053677;28;20047;-74
2023/08/11 00:05:39;;;;;;;9.48;4.28;;;;;;;-148.88;100.00;-17125.47;5052093;28;20471;-74
2023/08/11 00:08:05;;;;;;;9.18;4.13;;;;;;;-148.88;100.00;-17125.47;5051882;28;20029;-74
2023/08/11 00:10:32;;;;;;;9.35;4.65;;;;;;;-148.88;100.00;-17125.47;5053422;28;20100;-75
2023/08/11 00:12:58;;;;;;;7.40;4.20;;;;;;;-148.88;100.00;-17125.47;5053229;28;20076;-74
2023/08/11 00:15:24;;;;;;;7.03;4.40;;;;;;;-148.88;100.00;-17125.47;5053210;28;20025;-75
2023/08/11 00:17:51;;;;;;;5.70;4.22;;;;;;;-148.88;100.00;-17125.47;5052946;28;20070;-74
2023/08/11 00:20:17;;;;;;;9.23;4.55;;;;;;;-148.88;100.00;-17125.47;5053115;28;20035;-74
2023/08/11 00:22:42;;;;;;;8.48;4.82;;;;;;;-148.88;100.00;-17125.47;5052994;28;20099;-74
2023/08/11 00:25:08;;;;;;;6.65;4.50;;;;;;;-148.88;100.00;-17125.47;5051721;28;20023;-75
2023/08/11 00:27:33;;;;;;;6.90;4.22;;;;;;;-148.88;100.00;-17125.47;5051377;28;20480;-74
2023/08/11 00:30:00;;;;;;;8.13;4.82;;;;;;;-148.88;100.00;-17125.47;5052948;28;20056;-74
2023/08/11 00:32:26;;;;;;;8.25;4.45;;;;;;;-148.88;100.00;-17125.47;5052748;28;20043;-74
2023/08/11 00:34:51;;;;;;;7.80;4.63;;;;;;;-148.88;100.00;-17125.47;5052903;28;20025;-74
2023/08/11 00:37:17;;;;;;;8.52;4.40;;;;;;;-148.88;100.00;-17125.47;5052819;28;20598;-74
2023/08/11 00:39:42;;;;;;;7.95;4.45;;;;;;;-148.88;100.00;-17125.47;5053007;28;20028;-74
2023/08/11 00:42:07;;;;;;;7.28;4.97;;;;;;;-148.88;100.00;-17125.47;5052799;28;20419;-74
2023/08/11 00:44:33;;;;;;;9.43;5.47;;;;;;;-148.88;100.00;-17125.47;5052729;28;20032;-74
2023/08/11 00:46:59;;;;;;;7.25;5.20;;;;;;;-148.88;100.00;-17125.47;5052714;28;20029;-74
2023/08/11 00:49:25;;;;;;;10.82;5.47;;;;;;;-148.88;100.00;-17125.47;5052678;28;20630;-74
2023/08/11 00:51:51;;;;;;;11.43;5.50;;;;;;;-148.88;100.00;-17125.47;5052671;28;20036;-74
2023/08/11 00:54:16;;;;;;;9.80;5.05;;;;;;;-148.88;100.00;-17125.47;5052715;28;20021;-74
2023/08/11 00:56:45;;;;;;;8.18;5.00;;;;;;;-148.88;100.00;-17125.47;5052749;28;20487;-74
2023/08/11 00:59:12;;;;;;;7.75;5.28;;;;;;;-148.88;100.00;-17125.47;5052607;28;20024;-75
2023/08/11 01:01:37;;;;;;;8.32;4.95;;;;;;;-148.88;100.00;-17125.47;5051388;28;20021;-74
2023/08/11 01:04:05;;;;;;;8.00;5.05;;;;;;;-148.88;100.00;-17125.47;5052163;28;20021;-74
2023/08/11 01:06:42;;;;;;;8.65;5.20;;;;;;;-148.88;100.00;-17125.47;5055279;28;20476;-74
2023/08/11 01:09:27;;;;;;;8.38;4.72;;;;;;;-148.88;100.00;-17125.47;5056454;28;20029;-75
2023/08/11 01:12:17;;;;;;;6.72;5.18;;;;;;;-148.88;100.00;-17125.47;5055055;28;20460;-74
2023/08/11 01:14:52;;;;;;;6.93;4.70;;;;;;;-148.88;100.00;-17125.47;5056483;28;20099;-74
2023/08/11 01:17:18;;;;;;;7.90;4.63;;;;;;;-148.88;100.00;-17125.47;5056234;28;20020;-74
2023/08/11 01:19:45;;;;;;;7.72;4.80;;;;;;;-148.88;100.00;-17125.47;5055054;28;20025;-74
2023/08/11 01:22:14;;;;;;;8.38;4.72;;;;;;;-148.88;100.00;-17125.47;5056309;28;20021;-74
2023/08/11 01:24:43;;;;;;;7.38;4.45;;;;;;;-148.88;100.00;-17125.47;5054868;28;20430;-74
2023/08/11 01:27:08;;;;;;;8.70;5.00;;;;;;;-148.88;100.00;-17125.47;5056031;28;20035;-73
2023/08/11 01:29:34;;;;;;;8.82;5.00;;;;;;;-148.88;100.00;-17125.47;5054895;28;20025;-74
2023/08/11 01:31:59;;;;;;;7.63;5.20;;;;;;;-148.88;100.00;-17125.47;5054820;28;20032;-75
2023/08/11 01:34:25;;;;;;;8.25;5.30;;;;;;;-148.88;100.00;-17125.47;5056072;28;20107;-74
2023/08/11 01:37:03;;;;;;;7.72;5.00;;;;;;;-148.88;100.00;-17125.47;5056227;28;20030;-74
2023/08/11 01:39:30;;;;;;;7.65;5.13;;;;;;;-148.88;100.00;-17125.47;5055893;28;20104;-74
2023/08/11 01:41:55;;;;;;;8.02;4.95;;;;;;;-148.88;100.00;-17125.47;5054591;28;20078;-75
2023/08/11 01:44:22;;;;;;;8.50;4.93;;;;;;;-148.88;100.00;-17125.47;5054494;28;20021;-74
2023/08/11 01:46:50;;;;;;;9.15;5.00;;;;;;;-148.88;100.00;-17125.47;5055568;28;20025;-74
2023/08/11 01:49:15;;;;;;;7.05;5.07;;;;;;;-148.88;100.00;-17125.47;5055746;28;20555;-74
2023/08/11 01:51:42;;;;;;;7.65;5.20;;;;;;;-148.88;100.00;-17125.47;5055657;28;20108;-74
2023/08/11 01:54:08;;;;;;;9.55;5.93;;;;;;;-148.88;100.00;-17125.47;5055664;28;20048;-74
2023/08/11 01:56:36;;;;;;;7.65;4.65;;;;;;;-148.88;100.00;-17125.47;5055571;28;20093;-74
2023/08/11 01:59:04;;;;;;;9.68;5.72;;;;;;;-148.88;100.00;-17125.47;5055561;28;20025;-74
2023/08/11 02:01:30;;;;;;;7.85;5.15;;;;;;;-148.88;100.00;-17125.47;5054314;28;20079;-75
2023/08/11 02:03:55;;;;;;;11.68;5.90;;;;;;;-148.88;100.00;-17125.47;5055564;28;20021;-74
2023/08/11 02:06:20;;;;;;;10.07;5.88;;;;;;;-148.88;100.00;-17125.47;5055468;28;20029;-74
2023/08/11 02:08:46;;;;;;;9.55;6.13;;;;;;;-148.88;100.00;-17125.47;5055585;28;20112;-74
2023/08/11 02:11:13;;;;;;;9.00;6.32;;;;;;;-148.88;100.00;-17125.47;5054042;28;20024;-74
2023/08/11 02:13:38;;;;;;;9.65;6.60;;;;;;;-148.88;100.00;-17125.47;5055351;28;20021;-74
2023/08/11 02:16:04;;;;;;;11.05;6.78;;;;;;;-148.88;100.00;-17125.47;5054170;28;20391;-74
2023/08/11 02:18:29;;;;;;;10.35;6.25;;;;;;;-148.88;100.00;-17125.47;5055165;28;20063;-74
2023/08/11 02:20:54;;;;;;;6.82;5.18;;;;;;;-148.88;100.00;-17125.47;5055117;28;20028;-74
2023/08/11 02:23:20;;;;;;;9.15;5.93;;;;;;;-148.88;100.00;-17125.47;5055134;28;20036;-74
2023/08/11 02:25:45;;;;;;;8.93;6.22;;;;;;;-148.88;100.00;-17125.47;5055206;28;20033;-74
2023/08/11 02:28:11;;;;;;;12.48;6.60;;;;;;;-148.88;100.00;-17125.47;5053466;28;20025;-74
2023/08/11 02:30:36;;;;;;;12.20;6.32;;;;;;;-148.88;100.00;-17125.47;5054878;28;20033;-74
2023/08/11 02:33:01;;;;;;;10.20;6.60;;;;;;;-148.88;100.00;-17125.47;5053643;28;20388;-74
2023/08/11 02:35:27;;;;;;;14.82;6.93;;;;;;;-148.88;100.00;-17125.47;5054825;28;20021;-74
2023/08/11 02:37:52;;;;;;;9.27;6.60;;;;;;;-148.88;100.00;-17125.47;5053466;28;20028;-74
2023/08/11 02:40:19;;;;;;;9.55;6.63;;;;;;;-148.88;100.00;-17125.47;5054812;28;20025;-74
2023/08/11 02:42:52;;;;;;;12.25;7.43;;;;;;;-148.88;100.00;-17125.47;5053472;28;20029;-74
2023/08/11 02:45:17;;;;;;;10.77;6.68;;;;;;;-148.88;100.00;-17125.47;5054776;28;20032;-74
2023/08/11 02:47:42;;;;;;;10.68;6.35;;;;;;;-148.88;100.00;-17125.47;5054560;28;20024;-74
2023/08/11 02:50:08;;;;;;;9.52;6.13;;;;;;;-148.88;100.00;-17125.47;5054565;28;20024;-74
2023/08/11 02:52:35;;;;;;;9.07;6.20;;;;;;;-148.88;100.00;-17125.47;5054876;28;20048;-74
2023/08/11 02:55:05;;;;;;;10.27;6.45;;;;;;;-148.88;100.00;-17125.47;5054498;28;20100;-74
2023/08/11 02:57:31;;;;;;;10.40;6.63;;;;;;;-148.88;100.00;-17125.47;5054510;28;20016;-74
2023/08/11 02:59:56;;;;;;;11.48;7.10;;;;;;;-148.88;100.00;-17125.47;5054534;28;20029;-75
2023/08/11 03:02:22;;;;;;;10.60;7.80;;;;;;;-148.88;100.00;-17125.47;5054491;28;20045;-74
2023/08/11 03:04:47;;;;;;;12.93;6.78;;;;;;;-148.88;100.00;-17125.47;5054386;28;20060;-74
2023/08/11 03:07:13;;;;;;;12.82;7.05;;;;;;;-148.88;100.00;-17125.47;5054237;28;20033;-74
2023/08/11 03:09:39;;;;;;;14.02;7.28;;;;;;;-148.88;100.00;-17125.47;5054165;28;20047;-74
2023/08/11 03:12:06;;;;;;;10.25;6.40;;;;;;;-148.88;100.00;-17125.47;5054233;28;20021;-74
2023/08/11 03:14:31;;;;;;;10.65;7.43;;;;;;;-148.88;100.00;-17125.47;5054156;28;20024;-74
2023/08/11 03:16:57;;;;;;;10.68;7.07;;;;;;;-148.88;100.00;-17125.47;5054036;28;20029;-74
2023/08/11 03:19:22;;;;;;;9.30;6.85;;;;;;;-148.88;100.00;-17125.47;5052969;28;20025;-75
2023/08/11 03:21:47;;;;;;;10.32;6.85;;;;;;;-148.88;100.00;-17125.47;5052743;28;20196;-74
2023/08/11 03:24:13;;;;;;;14.93;6.90;;;;;;;-148.88;100.00;-17125.47;5054006;28;20021;-74
2023/08/11 03:26:38;;;;;;;9.57;6.60;;;;;;;-148.88;100.00;-17125.47;5052232;28;20123;-74
2023/08/11 03:29:04;;;;;;;9.98;6.57;;;;;;;-148.88;100.00;-17125.47;5052537;28;20029;-74
2023/08/11 03:31:29;;;;;;;9.98;6.93;;;;;;;-148.88;100.00;-17125.47;5053658;28;20055;-74
2023/08/11 03:33:55;;;;;;;10.80;6.60;;;;;;;-148.88;100.00;-17125.47;5052488;28;20033;-74
2023/08/11 03:36:20;;;;;;;8.70;7.07;;;;;;;-148.88;100.00;-17125.47;5053742;28;20431;-74
2023/08/11 03:38:46;;;;;;;10.23;6.47;;;;;;;-148.88;100.00;-17125.47;5053582;28;20079;-74
2023/08/11 03:41:12;;;;;;;8.57;6.97;;;;;;;-148.88;100.00;-17125.47;5053852;28;20079;-74
2023/08/11 03:43:37;;;;;;;9.77;7.20;;;;;;;-148.88;100.00;-17125.47;5052338;28;20025;-74
2023/08/11 03:46:03;;;;;;;9.30;7.30;;;;;;;-148.88;100.00;-17125.47;5053500;28;20036;-75
2023/08/11 03:48:28;;;;;;;9.50;6.95;;;;;;;-148.88;100.00;-17125.47;5053348;28;20083;-74
2023/08/11 03:50:59;;;;;;;8.98;6.82;;;;;;;-148.88;100.00;-17125.47;5053420;28;20475;-74
2023/08/11 03:53:24;;;;;;;11.70;7.55;;;;;;;-148.88;100.00;-17125.47;5053478;28;20021;-75
2023/08/11 03:55:49;;;;;;;9.82;7.53;;;;;;;-148.88;100.00;-17125.47;5052498;28;20047;-75
2023/08/11 03:58:15;;;;;;;10.57;6.68;;;;;;;-148.88;100.00;-17125.47;5053562;28;20025;-75
2023/08/11 04:00:40;;;;;;;11.77;7.85;;;;;;;-148.88;100.00;-17125.47;5053269;28;20013;-75
2023/08/11 04:03:05;;;;;;;9.13;7.68;;;;;;;-148.88;100.00;-17125.47;5053233;28;20056;-76
2023/08/11 04:05:31;;;;;;;9.10;7.22;;;;;;;-148.88;100.00;-17125.47;5052003;28;20060;-75
2023/08/11 04:07:56;;;;;;;11.57;7.25;;;;;;;-148.88;100.00;-17125.47;5053343;28;20048;-74
2023/08/11 04:10:22;;;;;;;11.77;6.93;;;;;;;-148.88;100.00;-17125.47;5053034;28;20016;-74
2023/08/11 04:12:47;;;;;;;13.05;7.30;;;;;;;-148.88;100.00;-17125.47;5053076;28;20037;-74
2023/08/11 04:15:12;;;;;;;11.85;7.05;;;;;;;-148.88;100.00;-17125.47;5051742;28;20399;-74
2023/08/11 04:17:40;;;;;;;11.23;7.68;;;;;;;-148.88;100.00;-17125.47;5052946;28;20028;-75
2023/08/11 04:20:13;;;;;;;9.63;6.85;;;;;;;-148.88;100.00;-17125.47;5051910;28;20391;-74
2023/08/11 04:22:40;;;;;;;13.05;7.53;;;;;;;-148.88;100.00;-17125.47;5051659;28;20132;-74
2023/08/11 04:25:07;;;;;;;11.48;7.53;;;;;;;-148.88;100.00;-17125.47;5051672;28;20036;-74
2023/08/11 04:27:33;;;;;;;10.77;7.03;;;;;;;-148.88;100.00;-17125.47;5052644;28;20040;-74
2023/08/11 04:29:58;;;;;;;9.52;7.05;;;;;;;-148.88;100.00;-17125.47;5052818;28;20021;-74
2023/08/11 04:32:23;;;;;;;9.02;7.35;;;;;;;-148.88;100.00;-17125.47;5052899;28;20111;-75
2023/08/11 04:34:49;;;;;;;11.05;7.40;;;;;;;-148.88;100.00;-17125.47;5051561;28;20037;-75
2023/08/11 04:37:17;;;;;;;12.85;7.05;;;;;;;-148.88;100.00;-17125.47;5053284;28;20032;-75
2023/08/11 04:39:44;;;;;;;9.98;7.00;;;;;;;-148.88;100.00;-17125.47;5057543;28;20060;-75
2023/08/11 04:42:10;;;;;;;12.15;7.15;;;;;;;-148.88;100.00;-17125.47;5059379;28;20017;-75
2023/08/11 04:44:35;;;;;;;11.10;8.45;;;;;;;-148.88;100.00;-17125.47;5059447;28;20021;-75
2023/08/11 04:47:00;;;;;;;12.45;8.60;;;;;;;-148.88;100.00;-17125.47;5058013;28;20021;-74
2023/08/11 04:49:26;;;;;;;10.95;8.23;;;;;;;-148.88;100.00;-17125.47;5059378;28;20036;-75
2023/08/11 04:51:51;;;;;;;11.60;8.63;;;;;;;-148.88;100.00;-17125.47;5059513;28;20503;-76
2023/08/11 04:54:17;;;;;;;12.63;7.75;;;;;;;-148.88;100.00;-17125.47;5059497;28;20047;-75
2023/08/11 04:56:43;;;;;;;11.55;7.82;;;;;;;-148.88;100.00;-17125.47;5059222;28;20408;-75
2023/08/11 04:59:09;;;;;;;10.98;7.85;;;;;;;-148.88;100.00;-17125.47;5059259;28;20021;-75
2023/08/11 05:01:34;;;;;;;13.93;8.13;;;;;;;-148.88;100.00;-17125.47;5058001;28;20021;-75
2023/08/11 05:04:00;;;;;;;10.32;7.50;;;;;;;-148.88;100.00;-17125.47;5058027;28;20031;-76
2023/08/11 05:06:25;;;;;;;12.50;7.60;;;;;;;-148.88;100.00;-17125.47;5059345;28;20024;-75
2023/08/11 05:08:50;;;;;;;12.65;8.10;;;;;;;-148.88;100.00;-17125.47;5059299;28;20108;-76
2023/08/11 05:11:16;;;;;;;15.18;8.80;;;;;;;-148.88;100.00;-17125.47;5059222;28;20067;-75
2023/08/11 05:13:41;;;;;;;9.70;8.60;;;;;;;-148.88;100.00;-17125.47;5057935;28;20058;-76
2023/08/11 05:16:06;;;;;;;13.95;8.55;;;;;;;-148.88;100.00;-17125.47;5059247;28;20032;-75
2023/08/11 05:18:32;;;;;;;12.57;8.35;;;;;;;-148.88;100.00;-17125.47;5059125;28;20036;-75
2023/08/11 05:20:57;;;;;;;10.82;7.97;;;;;;;-148.88;100.00;-17125.47;5059241;28;20048;-75
2023/08/11 05:23:23;;;;;;;13.85;8.30;;;;;;;-148.88;100.00;-17125.47;5059047;28;20071;-75
2023/08/11 05:25:48;;;;;;;12.32;8.30;;;;;;;-148.88;100.00;-17125.47;5058636;28;20036;-75
2023/08/11 05:28:14;;;;;;;11.13;8.05;;;;;;;-148.88;100.00;-17125.47;5057547;28;20065;-75
2023/08/11 05:30:39;;;;;;;10.75;8.63;;;;;;;-148.88;100.00;-17125.47;5059182;28;20036;-75
2023/08/11 05:33:04;;;;;;;11.73;7.78;;;;;;;-148.88;100.00;-17125.47;5057723;28;20075;-75
2023/08/11 05:35:30;;;;;;;13.35;8.82;;;;;;;-148.88;100.00;-17125.47;5057740;28;20021;-75
2023/08/11 05:37:56;;;;;;;13.80;7.93;;;;;;;-148.88;100.00;-17125.47;5057687;28;20048;-74
2023/08/11 05:40:21;;;;;;;13.52;9.43;;;;;;;-148.88;100.00;-17125.47;5057637;28;20056;-75
2023/08/11 05:42:46;;;;;;;15.98;9.05;;;;;;;-148.88;100.00;-17125.47;5058945;28;20025;-74
2023/08/11 05:45:12;;;;;;;18.40;9.00;;;;;;;-148.88;100.00;-17125.47;5057693;28;20054;-75
2023/08/11 05:47:37;;;;;;;11.95;8.70;;;;;;;-148.88;100.00;-17125.47;5058753;28;20068;-75
2023/08/11 05:50:03;;;;;;;12.82;9.02;;;;;;;-148.88;100.00;-17125.47;5058119;28;20078;-75
2023/08/11 05:52:29;;;;;;;11.95;8.82;;;;;;;-148.88;100.00;-17125.47;5054305;28;20484;-75
2023/08/11 05:54:54;;;;;;;15.02;8.43;;;;;;;-148.88;100.00;-17125.47;5054334;28;20032;-75
2023/08/11 05:57:19;;;;;;;12.02;8.25;;;;;;;-148.88;100.00;-17125.47;5055556;28;20414;-75
2023/08/11 05:59:47;;;;;;;12.80;8.13;;;;;;;-148.88;100.00;-17125.47;5054316;28;20021;-75
2023/08/11 06:02:12;;;;;;;11.30;8.48;;;;;;;-148.88;100.00;-17125.47;5054213;28;20120;-76
2023/08/11 06:04:38;;;;;;;11.45;7.78;;;;;;;-148.88;100.00;-17125.47;5054216;28;20039;-75
2023/08/11 06:07:03;;;;;;;10.07;7.43;;;;;;;-148.88;100.00;-17125.47;5055424;28;20060;-74
2023/08/11 06:09:29;;;;;;;13.05;7.80;;;;;;;-148.88;100.00;-17125.47;5054126;28;20020;-75
2023/08/11 06:11:55;;;;;;;12.38;7.65;;;;;;;-148.88;100.00;-17125.47;5055288;28;20050;-75
2023/08/11 06:14:20;;;;;;;11.90;6.80;;;;;;;-148.88;100.00;-17125.47;5055366;28;20039;-75
2023/08/11 06:16:46;;;;;;;10.13;6.35;;;;;;;-148.88;100.00;-17125.47;5053943;28;20029;-75
2023/08/11 06:19:11;;;;;;;15.93;6.35;;;;;;;-148.88;100.00;-17125.47;5055307;28;20040;-74
2023/08/11 06:21:37;;;;;;;12.50;5.57;;;;;;;-148.88;100.00;-17125.47;5055223;28;20036;-75
2023/08/11 06:24:03;;;;;;;8.07;5.65;;;;;;;-148.88;100.00;-17125.47;5055207;28;20036;-75
2023/08/11 06:26:28;;;;;;;10.35;5.38;;;;;;;-148.88;100.00;-17125.47;5055086;28;20395;-75
2023/08/11 06:28:54;;;;;;;9.05;5.55;;;;;;;-148.88;100.00;-17125.47;5053592;28;20104;-75
2023/08/11 06:31:19;;;;;;;11.23;5.03;;;;;;;-148.88;100.00;-17125.47;5054904;28;20175;-75
2023/08/11 06:33:44;;;;;;;8.73;4.97;;;;;;;-148.88;100.00;-17125.47;5053683;28;20021;-75
2023/08/11 06:36:10;;;;;;;12.35;5.22;;;;;;;-148.88;100.00;-17125.47;5054832;28;20436;-75
2023/08/11 06:38:35;;;;;;;8.70;4.85;;;;;;;-148.88;100.00;-17125.47;5053497;28;20025;-75
2023/08/11 06:41:01;;;;;;;8.95;5.00;;;;;;;-148.88;100.00;-17125.47;5054787;28;20028;-75
2023/08/11 06:43:26;;;;;;;7.80;4.70;;;;;;;-148.88;100.00;-17125.47;5054921;28;20025;-76
2023/08/11 06:45:52;;;;;;;6.65;4.32;;;;;;;-148.88;100.00;-17125.47;5054751;28;20052;-74
2023/08/11 06:48:17;;;;;;;6.43;4.30;;;;;;;-148.88;100.00;-17125.47;5054655;28;20025;-74
2023/08/11 06:50:42;;;;;;;7.75;4.40;;;;;;;-148.88;100.00;-17125.47;5054576;28;20052;-74
2023/08/11 06:53:08;;;;;;;5.22;3.83;;;;;;;-148.88;100.00;-17125.47;5054707;28;20025;-75
2023/08/11 06:55:34;;;;;;;6.82;4.22;;;;;;;-148.88;100.00;-17125.47;5054589;28;20024;-75
2023/08/11 06:57:59;;;;;;;6.18;4.10;;;;;;;-148.88;100.00;-17125.47;5054458;28;20486;-75
2023/08/11 07:00:27;;;;;;;6.90;4.20;;;;;;;-148.88;100.00;-17125.47;5054549;28;20016;-76
2023/08/11 07:02:52;;;;;;;8.30;4.10;;;;;;;-148.88;100.00;-17125.47;5052596;28;20506;-75
2023/08/11 07:05:18;;;;;;;7.75;3.72;;;;;;;-148.88;100.00;-17125.47;5054358;28;20074;-75
2023/08/11 07:07:43;;;;;;;5.82;3.85;;;;;;;-148.88;100.00;-17125.47;5054581;28;20048;-75
2023/08/11 07:10:09;;;;;;;5.18;3.45;;;;;;;-148.88;100.00;-17125.47;5054363;28;20033;-75
2023/08/11 07:12:34;;;;;;;8.15;3.50;;;;;;;-148.88;100.00;-17125.47;5054488;28;20078;-75
2023/08/11 07:15:00;;;;;;;5.75;3.70;;;;;;;-148.88;100.00;-17125.47;5054107;28;20422;-74
2023/08/11 07:17:25;;;;;;;7.43;3.03;;;;;;;-148.88;100.00;-17125.47;5054033;28;20020;-74
2023/08/11 07:19:51;;;;;;;5.55;2.72;;;;;;;-148.88;100.00;-17125.47;5054054;28;20045;-74
2023/08/11 07:22:19;;;;;;;5.40;2.80;;;;;;;-148.88;100.00;-17125.47;5054239;28;20025;-74
2023/08/11 07:24:44;;;;;;;5.10;2.72;;;;;;;-148.88;100.00;-17125.47;5053947;28;20025;-74
2023/08/11 07:27:09;;;;;;;6.60;2.55;;;;;;;-148.88;100.00;-17125.47;5053714;28;20025;-74
2023/08/11 07:29:35;;;;;;;5.78;2.63;;;;;;;-148.88;100.00;-17125.47;5053939;28;20025;-75
2023/08/11 07:32:00;;;;;;;6.38;2.83;;;;;;;-148.88;100.00;-17125.47;5054001;28;20029;-74
2023/08/11 07:34:25;;;;;;;4.80;2.65;;;;;;;-148.88;100.00;-17125.47;5053843;28;20053;-74
2023/08/11 07:36:51;;;;;;;6.43;2.67;;;;;;;-148.88;100.00;-17125.47;5054032;28;20064;-75
2023/08/11 07:39:16;;;;;;;7.47;2.60;;;;;;;-148.88;100.00;-17125.47;5053765;28;20039;-75
2023/08/11 07:41:41;;;;;;;7.57;2.63;;;;;;;-148.88;100.00;-17125.47;5053931;28;20052;-76
2023/08/11 07:44:07;;;;;;;4.60;2.33;;;;;;;-148.88;100.00;-17125.47;5053648;28;20021;-76
2023/08/11 07:46:32;;;;;;;6.22;2.15;;;;;;;-148.88;100.00;-17125.47;5053487;28;20024;-75
2023/08/11 07:48:58;;;;;;;5.22;2.40;;;;;;;-148.88;100.00;-17125.47;5053555;28;20028;-75
2023/08/11 07:51:23;;;;;;;4.47;2.15;;;;;;;-148.88;100.00;-17125.47;5053441;28;20025;-75
2023/08/11 07:53:49;;;;;;;7.93;2.28;;;;;;;-148.88;100.00;-17125.47;5053493;28;20021;-75
2023/08/11 07:56:15;;;;;;;4.15;2.20;;;;;;;-148.88;99.67;-17125.47;5052119;28;20025;-75
2023/08/11 07:58:40;;;;;;;6.07;2.13;;;;;;;-148.88;99.44;-17125.47;5053281;28;20535;-75
2023/08/11 08:01:08;;;;;;;3.45;2.10;;;;;;;-148.88;97.75;-17125.47;5053349;28;20017;-75
2023/08/11 08:03:34;;;;;;;4.10;2.10;;;;;;;-148.88;98.01;-17125.47;5053493;28;20032;-75
2023/08/11 08:06:00;;;;;;;6.60;2.30;;;;;;;-148.88;99.89;-17125.47;5051992;28;20074;-75
2023/08/11 08:08:26;;;;;;;4.40;1.88;;;;;;;-148.88;96.74;-17125.47;5051829;28;20025;-75
2023/08/11 08:10:51;;;;;;;4.22;1.98;;;;;;;-148.88;97.81;-17125.47;5053162;28;20025;-75
2023/08/11 08:13:17;;;;;;;2.88;1.80;;;;;;;-148.88;98.58;-17125.47;5052658;28;20036;-75
2023/08/11 08:15:42;;;;;;;3.33;1.80;;;;;;;-148.88;95.94;-17125.47;5052879;28;20021;-75
2023/08/11 08:18:08;;;;;;;3.95;1.90;;;;;;;-148.88;93.63;-17125.47;5053034;28;20021;-75
2023/08/11 08:20:33;;;;;;;4.80;2.10;;;;;;;-148.88;91.86;-17125.47;5053317;28;20017;-76
2023/08/11 08:22:59;;;;;;;5.10;2.30;;;;;;;-148.88;93.63;-17125.47;5051698;28;20078;-75
2023/08/11 08:25:24;;;;;;;3.75;2.08;;;;;;;-148.88;94.62;-17125.47;5053251;28;20021;-75
2023/08/11 08:27:49;;;;;;;4.60;2.10;;;;;;;-148.88;92.11;-17125.47;5051422;28;20079;-75
2023/08/11 08:30:15;;;;;;;3.85;2.10;;;;;;;-148.88;90.09;-17125.47;5052943;28;20027;-74
2023/08/11 08:32:41;;;;;;;4.80;2.22;;;;;;;-148.88;93.79;-17125.47;5052848;28;20029;-75
2023/08/11 08:35:07;;;;;;;5.07;2.10;;;;;;;-148.88;90.55;-17125.47;5052876;28;20078;-74
2023/08/11 08:37:33;;;;;;;3.83;2.17;;;;;;;-148.88;89.04;-17125.47;5052806;28;20395;-74
2023/08/11 08:39:58;;;;;;;3.92;1.90;;;;;;;-148.88;89.32;-17125.47;5052805;28;20480;-74
2023/08/11 08:42:25;;;;;;;5.88;1.90;;;;;;;-148.88;89.21;-17125.47;5052823;28;20078;-76
2023/08/11 08:44:52;;;;;;;5.32;1.90;;;;;;;-148.88;90.36;-17125.47;5052808;28;20067;-76
2023/08/11 08:47:19;;;;;;;6.82;2.10;;;;;;;-148.88;87.48;-17125.47;5051520;28;20106;-75
2023/08/11 08:49:46;;;;;;;5.43;2.30;;;;;;;-148.88;84.84;-17125.47;5055278;28;20020;-75
2023/08/11 08:52:12;;;;;;;4.95;1.85;;;;;;;-148.88;85.23;-17125.47;5051437;28;20032;-76
2023/08/11 08:54:39;;;;;;;4.13;2.08;;;;;;;-148.88;84.88;-17125.47;5051719;28;20441;-75
2023/08/11 08:57:06;;;;;;;4.85;2.22;;;;;;;-148.88;87.01;-17125.47;5052818;28;20064;-75
2023/08/11 08:59:32;;;;;;;5.70;2.42;;;;;;;-148.88;86.86;-17125.47;5052665;28;20028;-75
2023/08/11 09:01:58;;;;;;;5.85;2.30;;;;;;;-148.88;87.97;-17125.47;5052602;28;20025;-74
2023/08/11 09:04:25;;;;;;;3.70;2.30;;;;;;;-148.88;84.84;-17125.47;5052664;28;20108;-74
2023/08/11 09:06:53;;;;;;;6.20;2.25;;;;;;;-148.88;83.01;-17125.47;5052499;28;20028;-75
2023/08/11 09:09:19;;;;;;;4.82;2.05;;;;;;;-148.88;82.89;-17125.47;5052871;28;20044;-75
2023/08/11 09:11:44;;;;;;;5.63;1.90;;;;;;;-148.88;85.32;-17125.47;5052465;28;20029;-74
2023/08/11 09:14:10;;;;;;;4.65;2.35;;;;;;;-148.88;84.08;-17125.47;5052480;28;20483;-75
2023/08/11 09:16:37;;;;;;;3.85;2.20;;;;;;;-148.88;83.50;-17125.47;5052452;28;20063;-74
2023/08/11 09:19:07;;;;;;;7.97;2.22;;;;;;;-148.88;83.52;-17125.47;5052482;28;20506;-75
2023/08/11 09:21:33;;;;;;;4.15;2.13;;;;;;;-148.88;83.96;-17125.47;5052456;28;20020;-75
2023/08/11 09:23:58;;;;;;;3.85;2.47;;;;;;;-148.88;80.90;-17125.47;5052414;28;20100;-75
2023/08/11 09:26:24;;;;;;;4.93;2.80;;;;;;;-148.88;76.34;-17125.47;5061766;28;20029;-76
2023/08/11 09:28:50;;;;;;;4.50;2.40;;;;;;;-148.88;81.24;-17125.47;5054849;28;20028;-75
2023/08/11 09:31:23;;;;;;;3.85;1.95;;;;;;;-148.88;76.21;-17125.47;5056111;28;20021;-75
2023/08/11 09:33:49;;;;;;;5.15;2.50;;;;;;;-148.88;78.67;-17125.47;5056145;28;20484;-74
2023/08/11 09:36:17;;;;;;;4.03;2.05;;;;;;;-148.88;74.81;-17125.47;5056074;28;20032;-75
2023/08/11 09:38:46;;;;;;;3.42;2.00;;;;;;;-148.88;70.94;-17125.47;5054686;28;20107;-75
2023/08/11 09:41:15;;;;;;;7.13;2.40;;;;;;;-148.88;77.41;-17125.47;5056262;28;20021;-75
2023/08/11 09:43:50;;;;;;;3.90;2.30;;;;;;;-148.88;72.36;-17125.47;5055924;28;20044;-75
2023/08/11 09:46:16;;;;;;;5.18;2.20;;;;;;;-148.88;68.26;-17125.47;5055877;28;20071;-75
2023/08/11 09:48:41;;;;;;;4.50;2.20;;;;;;;-148.88;67.01;-17125.47;5054395;28;20432;-74
2023/08/11 09:51:10;;;;;;;4.13;1.92;;;;;;;-148.88;67.33;-17125.47;5055730;28;20143;-74
2023/08/11 09:53:39;;;;;;;3.35;2.17;;;;;;;-148.88;64.39;-17125.47;5055741;28;20095;-74
2023/08/11 09:56:05;;;;;;;4.68;2.08;;;;;;;-148.88;63.95;-17125.47;5055741;28;20045;-75
2023/08/11 09:58:33;;;;;;;4.82;2.10;;;;;;;-148.88;66.06;-17125.47;5055557;28;20096;-75
2023/08/11 10:00:59;;;;;;;6.20;2.25;;;;;;;-148.88;65.31;-17125.47;5055551;28;20108;-75
2023/08/11 10:03:30;;;;;;;4.78;2.30;;;;;;;-148.88;66.81;-17125.47;5055634;28;20099;-75
2023/08/11 10:05:58;;;;;;;3.55;2.05;;;;;;;-148.88;62.30;-17125.47;5055627;28;20104;-75
2023/08/11 10:08:26;;;;;;;6.18;2.40;;;;;;;-148.88;61.06;-17125.47;5055402;28;20021;-75
2023/08/11 10:10:52;;;;;;;4.22;2.50;;;;;;;-148.88;61.64;-17125.47;5055295;28;20070;-75
2023/08/11 10:13:26;;;;;;;7.35;2.65;;;;;;;-148.88;58.34;-17125.47;5055388;28;20107;-75
2023/08/11 10:15:55;;;;;;;5.78;2.58;;;;;;;-148.88;57.79;-17125.47;5055272;28;20085;-75
2023/08/11 10:18:21;;;;;;;7.38;2.45;;;;;;;-148.88;54.71;-17125.47;5055216;28;20028;-77
2023/08/11 10:20:51;;;;;;;6.07;2.65;;;;;;;-148.88;59.58;-17125.47;5055241;28;20017;-76
2023/08/11 10:23:18;;;;;;;4.38;2.38;;;;;;;-148.88;55.73;-17125.47;5055227;28;20028;-76
2023/08/11 10:25:45;;;;;;;4.68;2.15;;;;;;;-148.88;52.71;-17125.47;5053851;28;20021;-75
2023/08/11 10:28:12;;;;;;;4.45;2.65;;;;;;;-148.88;55.00;-17125.47;5054946;28;20031;-76
2023/08/11 10:30:38;;;;;;;4.57;2.35;;;;;;;-148.88;52.61;-17125.47;5054920;28;20099;-75
2023/08/11 10:33:06;;;;;;;6.03;2.63;;;;;;;-148.88;55.68;-17125.47;5054965;28;20025;-76
2023/08/11 10:35:53;;;;;;;4.88;2.38;;;;;;;-148.88;56.18;-17125.47;5053695;28;20040;-75
2023/08/11 10:38:27;;;;;;;6.15;2.50;;;;;;;-148.88;48.51;-17125.47;5052734;28;20033;-76
2023/08/11 10:41:05;;;;;;;4.63;2.75;;;;;;;-148.88;48.21;-17125.47;5055127;28;20027;-74
2023/08/11 10:43:33;;;;;;;4.97;2.85;;;;;;;-148.88;44.45;-17125.47;5055053;28;20479;-73
2023/08/11 10:46:21;;;;;;;4.07;2.28;;;;;;;-148.88;45.45;-17125.47;5053473;28;20029;-75
2023/08/11 10:48:47;;;;;;;4.40;2.22;;;;;;;-148.88;46.89;-17125.47;5054779;28;20033;-75
2023/08/11 10:51:39;;;;;;;5.22;2.40;;;;;;;-148.88;48.01;-17125.47;5054630;28;20093;-76
2023/08/11 10:54:11;;;;;;;4.47;2.47;;;;;;;-148.88;47.43;-17125.47;5052753;28;20037;-74
2023/08/11 10:56:42;;;;;;;3.95;2.20;;;;;;;-148.88;42.23;-17125.47;5054388;28;20044;-73
2023/08/11 10:59:31;;;;;;;3.35;2.00;;;;;;;-148.88;43.90;-17125.47;5054514;28;20025;-75